sensor_id;sensor_type;location;lat;lon;timestamp;P1;durP1;ratioP1;P2;durP2;ratioP2
39356;SDS011;25077;50.302;18.996;2022-08-19T00:01:45;10.40;;;7.40;;
39356;SDS011;25077;50.302;18.996;2022-08-19T00:04:48;11.25;;;7.47;;
39356;SDS011;25077;50.302;18.996;2022-08-19T00:07:54;10.15;;;7.28;;
39356;SDS011;25077;50.302;18.996;2022-08-19T00:10:56;9.65;;;7.28;;
39356;SDS011;25077;50.302;18.996;2022-08-19T00:13:58;13.45;;;7.53;;
39356;SDS011;25077;50.302;18.996;2022-08-19T00:17:00;11.65;;;7.07;;
39356;SDS011;25077;50.302;18.996;2022-08-19T00:20:03;11.63;;;6.97;;
39356;SDS011;25077;50.302;18.996;2022-08-19T00:23:07;8.33;;;6.80;;
39356;SDS011;25077;50.302;18.996;2022-08-19T00:26:10;15.05;;;7.57;;
39356;SDS011;25077;50.302;18.996;2022-08-19T00:29:13;13.20;;;7.33;;
39356;SDS011;25077;50.302;18.996;2022-08-19T00:32:16;10.40;;;7.53;;
39356;SDS011;25077;50.302;18.996;2022-08-19T00:35:18;12.05;;;7.45;;
39356;SDS011;25077;50.302;18.996;2022-08-19T00:38:21;11.15;;;7.70;;
39356;SDS011;25077;50.302;18.996;2022-08-19T00:41:24;9.30;;;7.15;;
39356;SDS011;25077;50.302;18.996;2022-08-19T00:44:27;12.23;;;7.57;;
39356;SDS011;25077;50.302;18.996;2022-08-19T00:47:30;14.65;;;8.35;;
39356;SDS011;25077;50.302;18.996;2022-08-19T00:50:33;10.43;;;8.13;;
39356;SDS011;25077;50.302;18.996;2022-08-19T00:53:37;11.27;;;7.82;;
39356;SDS011;25077;50.302;18.996;2022-08-19T00:56:39;13.13;;;7.70;;
39356;SDS011;25077;50.302;18.996;2022-08-19T00:59:43;14.40;;;7.90;;
39356;SDS011;25077;50.302;18.996;2022-08-19T01:02:47;14.03;;;7.40;;
39356;SDS011;25077;50.302;18.996;2022-08-19T01:05:49;11.37;;;7.87;;
39356;SDS011;25077;50.302;18.996;2022-08-19T01:08:54;10.97;;;7.77;;
39356;SDS011;25077;50.302;18.996;2022-08-19T01:11:57;11.38;;;7.78;;
39356;SDS011;25077;50.302;18.996;2022-08-19T01:14:59;12.35;;;7.80;;
39356;SDS011;25077;50.302;18.996;2022-08-19T01:18:09;13.03;;;8.10;;
39356;SDS011;25077;50.302;18.996;2022-08-19T01:21:15;13.40;;;8.33;;
39356;SDS011;25077;50.302;18.996;2022-08-19T01:24:23;8.43;;;7.43;;
39356;SDS011;25077;50.302;18.996;2022-08-19T01:27:25;12.37;;;8.27;;
39356;SDS011;25077;50.302;18.996;2022-08-19T01:30:29;11.37;;;8.07;;
39356;SDS011;25077;50.302;18.996;2022-08-19T01:33:33;10.43;;;7.73;;
39356;SDS011;25077;50.302;18.996;2022-08-19T01:36:37;15.57;;;8.40;;
39356;SDS011;25077;50.302;18.996;2022-08-19T01:39:43;14.27;;;7.93;;
39356;SDS011;25077;50.302;18.996;2022-08-19T01:42:45;14.00;;;8.37;;
39356;SDS011;25077;50.302;18.996;2022-08-19T01:45:47;11.77;;;7.80;;
39356;SDS011;25077;50.302;18.996;2022-08-19T01:48:49;12.20;;;8.53;;
39356;SDS011;25077;50.302;18.996;2022-08-19T01:51:53;15.33;;;7.47;;
39356;SDS011;25077;50.302;18.996;2022-08-19T01:54:57;12.87;;;8.17;;
39356;SDS011;25077;50.302;18.996;2022-08-19T01:57:59;13.40;;;8.27;;
39356;SDS011;25077;50.302;18.996;2022-08-19T02:01:04;13.10;;;8.10;;
39356;SDS011;25077;50.302;18.996;2022-08-19T02:04:06;11.50;;;7.93;;
39356;SDS011;25077;50.302;18.996;2022-08-19T02:07:08;13.00;;;7.70;;
39356;SDS011;25077;50.302;18.996;2022-08-19T02:10:13;15.03;;;8.40;;
39356;SDS011;25077;50.302;18.996;2022-08-19T02:13:19;13.10;;;8.30;;
39356;SDS011;25077;50.302;18.996;2022-08-19T02:16:21;11.57;;;8.17;;
39356;SDS011;25077;50.302;18.996;2022-08-19T02:19:23;14.23;;;8.13;;
39356;SDS011;25077;50.302;18.996;2022-08-19T02:22:25;10.50;;;8.63;;
39356;SDS011;25077;50.302;18.996;2022-08-19T02:25:29;10.23;;;8.13;;
39356;SDS011;25077;50.302;18.996;2022-08-19T02:28:30;10.73;;;8.50;;
39356;SDS011;25077;50.302;18.996;2022-08-19T02:31:32;11.10;;;7.50;;
39356;SDS011;25077;50.302;18.996;2022-08-19T02:34:34;14.13;;;8.20;;
39356;SDS011;25077;50.302;18.996;2022-08-19T02:37:36;11.80;;;8.83;;
39356;SDS011;25077;50.302;18.996;2022-08-19T02:40:58;13.23;;;8.60;;
39356;SDS011;25077;50.302;18.996;2022-08-19T02:44:03;11.40;;;8.27;;
39356;SDS011;25077;50.302;18.996;2022-08-19T02:47:05;12.43;;;8.40;;
39356;SDS011;25077;50.302;18.996;2022-08-19T02:50:07;11.60;;;8.30;;
39356;SDS011;25077;50.302;18.996;2022-08-19T02:53:10;16.47;;;9.37;;
39356;SDS011;25077;50.302;18.996;2022-08-19T02:56:14;12.57;;;8.40;;
39356;SDS011;25077;50.302;18.996;2022-08-19T02:59:16;14.87;;;8.03;;
39356;SDS011;25077;50.302;18.996;2022-08-19T03:02:18;13.10;;;7.97;;
39356;SDS011;25077;50.302;18.996;2022-08-19T03:05:19;15.20;;;8.80;;
39356;SDS011;25077;50.302;18.996;2022-08-19T03:08:21;11.30;;;8.30;;
39356;SDS011;25077;50.302;18.996;2022-08-19T03:11:26;13.07;;;9.10;;
39356;SDS011;25077;50.302;18.996;2022-08-19T03:14:30;13.80;;;8.20;;
39356;SDS011;25077;50.302;18.996;2022-08-19T03:17:31;12.30;;;8.90;;
39356;SDS011;25077;50.302;18.996;2022-08-19T03:20:33;15.63;;;8.60;;
39356;SDS011;25077;50.302;18.996;2022-08-19T03:23:35;11.90;;;8.13;;
39356;SDS011;25077;50.302;18.996;2022-08-19T03:26:39;12.57;;;9.53;;
39356;SDS011;25077;50.302;18.996;2022-08-19T03:29:43;13.93;;;8.43;;
39356;SDS011;25077;50.302;18.996;2022-08-19T03:32:45;16.23;;;8.43;;
39356;SDS011;25077;50.302;18.996;2022-08-19T03:35:47;14.40;;;8.67;;
39356;SDS011;25077;50.302;18.996;2022-08-19T03:39:01;12.00;;;8.10;;
39356;SDS011;25077;50.302;18.996;2022-08-19T03:42:05;11.23;;;8.17;;
39356;SDS011;25077;50.302;18.996;2022-08-19T03:45:07;13.13;;;8.43;;
39356;SDS011;25077;50.302;18.996;2022-08-19T03:48:10;15.77;;;8.50;;
39356;SDS011;25077;50.302;18.996;2022-08-19T03:51:15;11.40;;;8.33;;
39356;SDS011;25077;50.302;18.996;2022-08-19T03:54:19;12.27;;;7.30;;
39356;SDS011;25077;50.302;18.996;2022-08-19T03:57:24;12.20;;;8.47;;
39356;SDS011;25077;50.302;18.996;2022-08-19T04:00:26;14.40;;;7.90;;
39356;SDS011;25077;50.302;18.996;2022-08-19T04:03:28;12.13;;;8.80;;
39356;SDS011;25077;50.302;18.996;2022-08-19T04:06:31;10.53;;;7.93;;
39356;SDS011;25077;50.302;18.996;2022-08-19T04:09:35;15.33;;;8.60;;
39356;SDS011;25077;50.302;18.996;2022-08-19T04:12:39;12.63;;;8.47;;
39356;SDS011;25077;50.302;18.996;2022-08-19T04:15:41;13.27;;;8.17;;
39356;SDS011;25077;50.302;18.996;2022-08-19T04:18:43;9.53;;;7.57;;
39356;SDS011;25077;50.302;18.996;2022-08-19T04:21:46;11.57;;;8.37;;
39356;SDS011;25077;50.302;18.996;2022-08-19T04:24:50;9.20;;;7.67;;
39356;SDS011;25077;50.302;18.996;2022-08-19T04:27:53;13.07;;;7.83;;
39356;SDS011;25077;50.302;18.996;2022-08-19T04:30:55;15.97;;;8.70;;
39356;SDS011;25077;50.302;18.996;2022-08-19T04:33:59;14.93;;;8.40;;
39356;SDS011;25077;50.302;18.996;2022-08-19T04:37:01;15.53;;;8.17;;
39356;SDS011;25077;50.302;18.996;2022-08-19T04:40:08;12.07;;;8.13;;
39356;SDS011;25077;50.302;18.996;2022-08-19T04:43:44;12.00;;;8.13;;
39356;SDS011;25077;50.302;18.996;2022-08-19T04:46:49;10.10;;;7.43;;
39356;SDS011;25077;50.302;18.996;2022-08-19T04:49:51;11.33;;;8.07;;
39356;SDS011;25077;50.302;18.996;2022-08-19T04:52:53;15.80;;;7.77;;
39356;SDS011;25077;50.302;18.996;2022-08-19T04:55:56;20.50;;;8.17;;
39356;SDS011;25077;50.302;18.996;2022-08-19T04:59:00;17.03;;;7.80;;
39356;SDS011;25077;50.302;18.996;2022-08-19T05:02:04;14.77;;;7.72;;
39356;SDS011;25077;50.302;18.996;2022-08-19T05:05:08;14.90;;;7.50;;
39356;SDS011;25077;50.302;18.996;2022-08-19T05:08:11;10.05;;;7.38;;
39356;SDS011;25077;50.302;18.996;2022-08-19T05:11:14;13.60;;;7.87;;
39356;SDS011;25077;50.302;18.996;2022-08-19T05:14:19;13.77;;;7.95;;
39356;SDS011;25077;50.302;18.996;2022-08-19T05:17:22;11.03;;;8.03;;
39356;SDS011;25077;50.302;18.996;2022-08-19T05:20:24;16.60;;;8.77;;
39356;SDS011;25077;50.302;18.996;2022-08-19T05:23:43;11.15;;;8.20;;
39356;SDS011;25077;50.302;18.996;2022-08-19T05:26:46;16.48;;;8.30;;
39356;SDS011;25077;50.302;18.996;2022-08-19T05:29:50;24.20;;;9.77;;
39356;SDS011;25077;50.302;18.996;2022-08-19T05:32:52;23.90;;;9.13;;
39356;SDS011;25077;50.302;18.996;2022-08-19T05:35:55;18.35;;;8.20;;
39356;SDS011;25077;50.302;18.996;2022-08-19T05:38:57;19.05;;;8.45;;
39356;SDS011;25077;50.302;18.996;2022-08-19T05:42:01;23.65;;;8.90;;
39356;SDS011;25077;50.302;18.996;2022-08-19T05:45:06;12.43;;;8.05;;
39356;SDS011;25077;50.302;18.996;2022-08-19T05:48:09;13.55;;;7.93;;
39356;SDS011;25077;50.302;18.996;2022-08-19T05:51:12;13.52;;;7.72;;
39356;SDS011;25077;50.302;18.996;2022-08-19T05:54:14;16.13;;;8.02;;
39356;SDS011;25077;50.302;18.996;2022-08-19T05:57:16;12.38;;;8.00;;
39356;SDS011;25077;50.302;18.996;2022-08-19T06:00:20;15.35;;;7.90;;
39356;SDS011;25077;50.302;18.996;2022-08-19T06:03:23;9.48;;;8.00;;
39356;SDS011;25077;50.302;18.996;2022-08-19T06:06:25;12.77;;;7.95;;
39356;SDS011;25077;50.302;18.996;2022-08-19T06:09:27;15.18;;;7.63;;
39356;SDS011;25077;50.302;18.996;2022-08-19T06:12:29;12.50;;;7.20;;
39356;SDS011;25077;50.302;18.996;2022-08-19T06:15:35;12.48;;;7.85;;
39356;SDS011;25077;50.302;18.996;2022-08-19T06:18:37;16.35;;;7.38;;
39356;SDS011;25077;50.302;18.996;2022-08-19T06:21:40;11.68;;;7.20;;
39356;SDS011;25077;50.302;18.996;2022-08-19T06:24:43;14.35;;;7.40;;
39356;SDS011;25077;50.302;18.996;2022-08-19T06:27:45;22.95;;;7.95;;
39356;SDS011;25077;50.302;18.996;2022-08-19T06:30:49;14.65;;;7.05;;
39356;SDS011;25077;50.302;18.996;2022-08-19T06:33:51;11.55;;;7.30;;
39356;SDS011;25077;50.302;18.996;2022-08-19T06:36:54;9.27;;;7.05;;
39356;SDS011;25077;50.302;18.996;2022-08-19T06:39:56;11.73;;;7.40;;
39356;SDS011;25077;50.302;18.996;2022-08-19T06:42:58;15.75;;;6.95;;
39356;SDS011;25077;50.302;18.996;2022-08-19T06:46:03;11.52;;;6.47;;
39356;SDS011;25077;50.302;18.996;2022-08-19T06:49:11;17.65;;;7.45;;
39356;SDS011;25077;50.302;18.996;2022-08-19T06:52:14;15.50;;;6.97;;
39356;SDS011;25077;50.302;18.996;2022-08-19T06:55:16;12.23;;;6.90;;
39356;SDS011;25077;50.302;18.996;2022-08-19T06:58:18;11.73;;;6.70;;
39356;SDS011;25077;50.302;18.996;2022-08-19T07:01:21;13.27;;;6.88;;
39356;SDS011;25077;50.302;18.996;2022-08-19T07:04:24;10.20;;;6.45;;
39356;SDS011;25077;50.302;18.996;2022-08-19T07:07:28;17.17;;;6.40;;
39356;SDS011;25077;50.302;18.996;2022-08-19T07:10:31;17.13;;;6.47;;
39356;SDS011;25077;50.302;18.996;2022-08-19T07:13:35;13.70;;;6.90;;
39356;SDS011;25077;50.302;18.996;2022-08-19T07:16:39;10.88;;;6.57;;
39356;SDS011;25077;50.302;18.996;2022-08-19T07:19:41;12.15;;;6.78;;
39356;SDS011;25077;50.302;18.996;2022-08-19T07:22:43;11.82;;;6.90;;
39356;SDS011;25077;50.302;18.996;2022-08-19T07:25:45;12.32;;;6.88;;
39356;SDS011;25077;50.302;18.996;2022-08-19T07:28:47;12.07;;;6.80;;
39356;SDS011;25077;50.302;18.996;2022-08-19T07:31:52;18.10;;;7.28;;
39356;SDS011;25077;50.302;18.996;2022-08-19T07:34:56;14.93;;;7.28;;
39356;SDS011;25077;50.302;18.996;2022-08-19T07:38:00;16.83;;;7.18;;
39356;SDS011;25077;50.302;18.996;2022-08-19T07:41:04;12.10;;;7.03;;
39356;SDS011;25077;50.302;18.996;2022-08-19T07:44:07;14.20;;;7.03;;
39356;SDS011;25077;50.302;18.996;2022-08-19T07:47:10;13.45;;;7.10;;
39356;SDS011;25077;50.302;18.996;2022-08-19T07:50:16;16.45;;;7.13;;
39356;SDS011;25077;50.302;18.996;2022-08-19T07:53:19;10.70;;;6.15;;
39356;SDS011;25077;50.302;18.996;2022-08-19T07:56:22;11.38;;;7.10;;
39356;SDS011;25077;50.302;18.996;2022-08-19T07:59:25;13.98;;;6.32;;
39356;SDS011;25077;50.302;18.996;2022-08-19T08:02:28;12.68;;;6.70;;
39356;SDS011;25077;50.302;18.996;2022-08-19T08:05:30;18.85;;;7.18;;
39356;SDS011;25077;50.302;18.996;2022-08-19T08:08:49;11.25;;;6.72;;
39356;SDS011;25077;50.302;18.996;2022-08-19T08:12:15;11.30;;;6.28;;
39356;SDS011;25077;50.302;18.996;2022-08-19T08:15:20;6.82;;;5.88;;
39356;SDS011;25077;50.302;18.996;2022-08-19T08:18:23;19.05;;;7.43;;
39356;SDS011;25077;50.302;18.996;2022-08-19T08:21:25;16.30;;;7.18;;
39356;SDS011;25077;50.302;18.996;2022-08-19T08:24:28;17.23;;;6.72;;
39356;SDS011;25077;50.302;18.996;2022-08-19T08:27:34;15.25;;;6.50;;
39356;SDS011;25077;50.302;18.996;2022-08-19T08:30:39;11.32;;;6.78;;
39356;SDS011;25077;50.302;18.996;2022-08-19T08:33:44;11.07;;;6.72;;
39356;SDS011;25077;50.302;18.996;2022-08-19T08:36:46;12.93;;;6.47;;
39356;SDS011;25077;50.302;18.996;2022-08-19T08:39:49;14.10;;;5.53;;
39356;SDS011;25077;50.302;18.996;2022-08-19T08:42:51;9.80;;;6.00;;
39356;SDS011;25077;50.302;18.996;2022-08-19T08:46:01;14.25;;;6.55;;
39356;SDS011;25077;50.302;18.996;2022-08-19T08:49:11;9.55;;;5.63;;
39356;SDS011;25077;50.302;18.996;2022-08-19T08:52:22;8.20;;;5.82;;
39356;SDS011;25077;50.302;18.996;2022-08-19T08:55:27;11.95;;;6.43;;
39356;SDS011;25077;50.302;18.996;2022-08-19T08:58:32;6.65;;;5.45;;
39356;SDS011;25077;50.302;18.996;2022-08-19T09:01:42;12.07;;;6.30;;
39356;SDS011;25077;50.302;18.996;2022-08-19T09:04:45;10.98;;;6.07;;
39356;SDS011;25077;50.302;18.996;2022-08-19T09:07:50;11.18;;;6.97;;
39356;SDS011;25077;50.302;18.996;2022-08-19T09:10:58;10.93;;;6.32;;
39356;SDS011;25077;50.302;18.996;2022-08-19T09:14:07;13.68;;;6.43;;
39356;SDS011;25077;50.302;18.996;2022-08-19T09:17:18;12.13;;;6.50;;
39356;SDS011;25077;50.302;18.996;2022-08-19T09:20:32;8.88;;;5.93;;
39356;SDS011;25077;50.302;18.996;2022-08-19T09:23:34;10.70;;;6.35;;
39356;SDS011;25077;50.302;18.996;2022-08-19T09:26:36;13.10;;;6.25;;
39356;SDS011;25077;50.302;18.996;2022-08-19T09:29:38;16.25;;;6.35;;
39356;SDS011;25077;50.302;18.996;2022-08-19T09:32:40;12.75;;;6.32;;
39356;SDS011;25077;50.302;18.996;2022-08-19T09:35:44;10.40;;;6.22;;
39356;SDS011;25077;50.302;18.996;2022-08-19T09:38:46;8.02;;;6.30;;
39356;SDS011;25077;50.302;18.996;2022-08-19T09:41:48;8.85;;;6.22;;
39356;SDS011;25077;50.302;18.996;2022-08-19T09:44:51;12.45;;;6.30;;
39356;SDS011;25077;50.302;18.996;2022-08-19T09:47:53;13.85;;;6.07;;
39356;SDS011;25077;50.302;18.996;2022-08-19T09:51:01;13.38;;;6.13;;
39356;SDS011;25077;50.302;18.996;2022-08-19T09:54:04;7.13;;;5.35;;
39356;SDS011;25077;50.302;18.996;2022-08-19T09:57:06;11.10;;;5.53;;
39356;SDS011;25077;50.302;18.996;2022-08-19T10:00:08;6.95;;;5.43;;
39356;SDS011;25077;50.302;18.996;2022-08-19T10:03:11;10.43;;;5.82;;
39356;SDS011;25077;50.302;18.996;2022-08-19T10:06:14;16.73;;;6.22;;
39356;SDS011;25077;50.302;18.996;2022-08-19T10:09:17;10.63;;;5.53;;
39356;SDS011;25077;50.302;18.996;2022-08-19T10:12:19;9.43;;;5.63;;
39356;SDS011;25077;50.302;18.996;2022-08-19T10:15:21;10.05;;;5.78;;
39356;SDS011;25077;50.302;18.996;2022-08-19T10:18:23;8.85;;;5.35;;
39356;SDS011;25077;50.302;18.996;2022-08-19T10:21:28;10.77;;;5.72;;
39356;SDS011;25077;50.302;18.996;2022-08-19T10:24:31;14.50;;;6.10;;
39356;SDS011;25077;50.302;18.996;2022-08-19T10:27:33;12.00;;;4.72;;
39356;SDS011;25077;50.302;18.996;2022-08-19T10:30:36;12.60;;;5.65;;
39356;SDS011;25077;50.302;18.996;2022-08-19T10:33:38;12.95;;;5.18;;
39356;SDS011;25077;50.302;18.996;2022-08-19T10:36:42;11.85;;;5.53;;
39356;SDS011;25077;50.302;18.996;2022-08-19T10:39:45;9.88;;;5.57;;
39356;SDS011;25077;50.302;18.996;2022-08-19T10:42:48;13.35;;;5.57;;
39356;SDS011;25077;50.302;18.996;2022-08-19T10:45:53;9.57;;;5.10;;
39356;SDS011;25077;50.302;18.996;2022-08-19T10:48:57;11.40;;;4.53;;
39356;SDS011;25077;50.302;18.996;2022-08-19T10:52:01;16.90;;;5.13;;
39356;SDS011;25077;50.302;18.996;2022-08-19T10:55:27;10.93;;;4.60;;
39356;SDS011;25077;50.302;18.996;2022-08-19T10:58:46;7.28;;;4.95;;
39356;SDS011;25077;50.302;18.996;2022-08-19T11:01:49;9.02;;;4.90;;
39356;SDS011;25077;50.302;18.996;2022-08-19T11:04:52;6.95;;;5.40;;
39356;SDS011;25077;50.302;18.996;2022-08-19T11:07:55;14.07;;;5.10;;
39356;SDS011;25077;50.302;18.996;2022-08-19T11:10:58;11.13;;;5.03;;
39356;SDS011;25077;50.302;18.996;2022-08-19T11:14:03;10.75;;;5.40;;
39356;SDS011;25077;50.302;18.996;2022-08-19T11:17:05;13.45;;;6.20;;
39356;SDS011;25077;50.302;18.996;2022-08-19T11:20:08;11.20;;;5.18;;
39356;SDS011;25077;50.302;18.996;2022-08-19T11:23:12;11.77;;;5.40;;
39356;SDS011;25077;50.302;18.996;2022-08-19T11:26:14;11.57;;;4.90;;
39356;SDS011;25077;50.302;18.996;2022-08-19T11:29:17;10.80;;;5.40;;
39356;SDS011;25077;50.302;18.996;2022-08-19T11:32:21;11.25;;;5.25;;
39356;SDS011;25077;50.302;18.996;2022-08-19T11:35:23;8.20;;;4.93;;
39356;SDS011;25077;50.302;18.996;2022-08-19T11:38:26;10.23;;;4.78;;
39356;SDS011;25077;50.302;18.996;2022-08-19T11:41:28;11.13;;;5.22;;
39356;SDS011;25077;50.302;18.996;2022-08-19T11:44:30;11.85;;;5.22;;
39356;SDS011;25077;50.302;18.996;2022-08-19T11:47:32;9.45;;;4.53;;
39356;SDS011;25077;50.302;18.996;2022-08-19T11:50:34;15.50;;;5.00;;
39356;SDS011;25077;50.302;18.996;2022-08-19T11:53:43;8.20;;;4.60;;
39356;SDS011;25077;50.302;18.996;2022-08-19T11:56:46;11.80;;;4.40;;
39356;SDS011;25077;50.302;18.996;2022-08-19T11:59:49;7.10;;;4.18;;
39356;SDS011;25077;50.302;18.996;2022-08-19T12:02:52;9.32;;;4.45;;
39356;SDS011;25077;50.302;18.996;2022-08-19T12:05:55;15.20;;;4.68;;
39356;SDS011;25077;50.302;18.996;2022-08-19T12:08:59;10.85;;;4.63;;
39356;SDS011;25077;50.302;18.996;2022-08-19T12:12:04;9.23;;;4.35;;
39356;SDS011;25077;50.302;18.996;2022-08-19T12:15:07;11.48;;;4.22;;
39356;SDS011;25077;50.302;18.996;2022-08-19T12:18:11;8.30;;;4.50;;
39356;SDS011;25077;50.302;18.996;2022-08-19T12:21:14;14.55;;;4.55;;
39356;SDS011;25077;50.302;18.996;2022-08-19T12:24:18;7.45;;;4.30;;
39356;SDS011;25077;50.302;18.996;2022-08-19T12:27:23;10.60;;;4.20;;
39356;SDS011;25077;50.302;18.996;2022-08-19T12:30:25;7.90;;;3.88;;
39356;SDS011;25077;50.302;18.996;2022-08-19T12:33:27;9.35;;;5.53;;
39356;SDS011;25077;50.302;18.996;2022-08-19T12:36:29;14.27;;;4.82;;
39356;SDS011;25077;50.302;18.996;2022-08-19T12:39:35;8.30;;;4.50;;
39356;SDS011;25077;50.302;18.996;2022-08-19T12:42:38;7.13;;;3.75;;
39356;SDS011;25077;50.302;18.996;2022-08-19T12:45:42;7.65;;;4.85;;
39356;SDS011;25077;50.302;18.996;2022-08-19T12:48:45;7.90;;;4.75;;
39356;SDS011;25077;50.302;18.996;2022-08-19T12:51:47;5.80;;;4.35;;
39356;SDS011;25077;50.302;18.996;2022-08-19T12:54:51;7.15;;;4.43;;
39356;SDS011;25077;50.302;18.996;2022-08-19T12:57:54;11.50;;;4.53;;
39356;SDS011;25077;50.302;18.996;2022-08-19T13:00:56;10.02;;;5.43;;
39356;SDS011;25077;50.302;18.996;2022-08-19T13:03:58;12.65;;;4.68;;
39356;SDS011;25077;50.302;18.996;2022-08-19T13:07:01;17.20;;;4.90;;
39356;SDS011;25077;50.302;18.996;2022-08-19T13:10:04;9.20;;;4.55;;
39356;SDS011;25077;50.302;18.996;2022-08-19T13:13:08;9.70;;;4.63;;
39356;SDS011;25077;50.302;18.996;2022-08-19T13:16:11;9.38;;;4.60;;
39356;SDS011;25077;50.302;18.996;2022-08-19T13:19:13;9.10;;;4.55;;
39356;SDS011;25077;50.302;18.996;2022-08-19T13:22:15;10.63;;;4.40;;
39356;SDS011;25077;50.302;18.996;2022-08-19T13:25:19;15.15;;;4.90;;
39356;SDS011;25077;50.302;18.996;2022-08-19T13:28:22;12.38;;;5.18;;
39356;SDS011;25077;50.302;18.996;2022-08-19T13:31:25;10.60;;;4.82;;
39356;SDS011;25077;50.302;18.996;2022-08-19T13:34:45;10.23;;;4.07;;
39356;SDS011;25077;50.302;18.996;2022-08-19T13:37:47;17.35;;;4.85;;
39356;SDS011;25077;50.302;18.996;2022-08-19T13:40:51;9.48;;;4.38;;
39356;SDS011;25077;50.302;18.996;2022-08-19T13:43:55;10.68;;;3.97;;
39356;SDS011;25077;50.302;18.996;2022-08-19T13:46:59;9.85;;;4.43;;
39356;SDS011;25077;50.302;18.996;2022-08-19T13:50:03;8.02;;;4.20;;
39356;SDS011;25077;50.302;18.996;2022-08-19T13:53:05;15.15;;;4.75;;
39356;SDS011;25077;50.302;18.996;2022-08-19T13:56:09;12.52;;;4.85;;
39356;SDS011;25077;50.302;18.996;2022-08-19T13:59:14;7.97;;;4.45;;
39356;SDS011;25077;50.302;18.996;2022-08-19T14:02:16;9.57;;;4.38;;
39356;SDS011;25077;50.302;18.996;2022-08-19T14:05:18;7.25;;;4.50;;
39356;SDS011;25077;50.302;18.996;2022-08-19T14:08:21;11.45;;;4.35;;
39356;SDS011;25077;50.302;18.996;2022-08-19T14:11:24;9.60;;;4.30;;
39356;SDS011;25077;50.302;18.996;2022-08-19T14:14:26;9.40;;;4.45;;
39356;SDS011;25077;50.302;18.996;2022-08-19T14:17:29;12.13;;;5.15;;
39356;SDS011;25077;50.302;18.996;2022-08-19T14:20:33;8.88;;;4.60;;
39356;SDS011;25077;50.302;18.996;2022-08-19T14:23:36;9.15;;;4.32;;
39356;SDS011;25077;50.302;18.996;2022-08-19T14:26:39;11.80;;;4.35;;
39356;SDS011;25077;50.302;18.996;2022-08-19T14:29:41;7.30;;;3.95;;
39356;SDS011;25077;50.302;18.996;2022-08-19T14:32:43;13.13;;;4.50;;
39356;SDS011;25077;50.302;18.996;2022-08-19T14:35:45;13.95;;;4.60;;
39356;SDS011;25077;50.302;18.996;2022-08-19T14:38:47;9.60;;;4.70;;
39356;SDS011;25077;50.302;18.996;2022-08-19T14:41:51;13.75;;;4.95;;
39356;SDS011;25077;50.302;18.996;2022-08-19T14:44:56;11.65;;;5.15;;
39356;SDS011;25077;50.302;18.996;2022-08-19T14:47:59;12.65;;;4.40;;
39356;SDS011;25077;50.302;18.996;2022-08-19T14:51:01;9.13;;;4.35;;
39356;SDS011;25077;50.302;18.996;2022-08-19T14:54:02;6.95;;;4.40;;
39356;SDS011;25077;50.302;18.996;2022-08-19T14:57:06;9.80;;;4.78;;
39356;SDS011;25077;50.302;18.996;2022-08-19T15:00:08;11.90;;;4.90;;
39356;SDS011;25077;50.302;18.996;2022-08-19T15:03:13;10.40;;;4.70;;
39356;SDS011;25077;50.302;18.996;2022-08-19T15:06:15;11.77;;;4.43;;
39356;SDS011;25077;50.302;18.996;2022-08-19T15:09:17;10.88;;;4.32;;
39356;SDS011;25077;50.302;18.996;2022-08-19T15:12:20;11.60;;;4.40;;
39356;SDS011;25077;50.302;18.996;2022-08-19T15:15:23;10.68;;;4.43;;
39356;SDS011;25077;50.302;18.996;2022-08-19T15:18:25;12.25;;;5.03;;
39356;SDS011;25077;50.302;18.996;2022-08-19T15:21:27;8.68;;;4.55;;
39356;SDS011;25077;50.302;18.996;2022-08-19T15:24:30;12.40;;;4.35;;
39356;SDS011;25077;50.302;18.996;2022-08-19T15:27:34;12.75;;;4.65;;
39356;SDS011;25077;50.302;18.996;2022-08-19T15:30:37;13.48;;;3.97;;
39356;SDS011;25077;50.302;18.996;2022-08-19T15:33:39;10.27;;;4.45;;
39356;SDS011;25077;50.302;18.996;2022-08-19T15:36:42;11.40;;;4.68;;
39356;SDS011;25077;50.302;18.996;2022-08-19T15:39:44;15.55;;;5.38;;
39356;SDS011;25077;50.302;18.996;2022-08-19T15:42:48;13.38;;;4.82;;
39356;SDS011;25077;50.302;18.996;2022-08-19T15:45:50;8.98;;;4.70;;
39356;SDS011;25077;50.302;18.996;2022-08-19T15:48:52;11.50;;;4.40;;
39356;SDS011;25077;50.302;18.996;2022-08-19T15:51:55;11.25;;;4.97;;
39356;SDS011;25077;50.302;18.996;2022-08-19T15:54:59;9.52;;;4.75;;
39356;SDS011;25077;50.302;18.996;2022-08-19T15:58:04;10.43;;;5.25;;
39356;SDS011;25077;50.302;18.996;2022-08-19T16:01:25;14.85;;;5.03;;
39356;SDS011;25077;50.302;18.996;2022-08-19T16:04:44;18.17;;;4.88;;
39356;SDS011;25077;50.302;18.996;2022-08-19T16:08:04;14.27;;;5.13;;
39356;SDS011;25077;50.302;18.996;2022-08-19T16:11:09;16.92;;;5.47;;
39356;SDS011;25077;50.302;18.996;2022-08-19T16:14:13;15.70;;;5.90;;
39356;SDS011;25077;50.302;18.996;2022-08-19T16:17:16;18.75;;;5.40;;
39356;SDS011;25077;50.302;18.996;2022-08-19T16:20:18;11.10;;;5.80;;
39356;SDS011;25077;50.302;18.996;2022-08-19T16:23:21;12.88;;;7.95;;
39356;SDS011;25077;50.302;18.996;2022-08-19T16:26:23;18.70;;;5.82;;
39356;SDS011;25077;50.302;18.996;2022-08-19T16:29:30;13.30;;;5.28;;
39356;SDS011;25077;50.302;18.996;2022-08-19T16:32:33;10.23;;;4.90;;
39356;SDS011;25077;50.302;18.996;2022-08-19T16:35:36;12.77;;;5.25;;
39356;SDS011;25077;50.302;18.996;2022-08-19T16:38:38;13.68;;;5.38;;
39356;SDS011;25077;50.302;18.996;2022-08-19T16:41:40;9.10;;;4.68;;
39356;SDS011;25077;50.302;18.996;2022-08-19T16:44:45;10.18;;;4.93;;
39356;SDS011;25077;50.302;18.996;2022-08-19T16:47:47;16.95;;;5.30;;
39356;SDS011;25077;50.302;18.996;2022-08-19T16:50:50;10.05;;;5.25;;
39356;SDS011;25077;50.302;18.996;2022-08-19T16:53:52;16.73;;;5.00;;
39356;SDS011;25077;50.302;18.996;2022-08-19T16:56:54;14.30;;;5.70;;
39356;SDS011;25077;50.302;18.996;2022-08-19T16:59:58;8.40;;;5.45;;
39356;SDS011;25077;50.302;18.996;2022-08-19T17:03:05;13.25;;;5.30;;
39356;SDS011;25077;50.302;18.996;2022-08-19T17:06:10;12.32;;;5.53;;
39356;SDS011;25077;50.302;18.996;2022-08-19T17:09:14;18.45;;;5.50;;
39356;SDS011;25077;50.302;18.996;2022-08-19T17:12:17;16.85;;;5.70;;
39356;SDS011;25077;50.302;18.996;2022-08-19T17:15:21;15.45;;;5.47;;
39356;SDS011;25077;50.302;18.996;2022-08-19T17:18:23;15.52;;;5.85;;
39356;SDS011;25077;50.302;18.996;2022-08-19T17:21:26;8.88;;;5.68;;
39356;SDS011;25077;50.302;18.996;2022-08-19T17:24:31;13.65;;;5.75;;
39356;SDS011;25077;50.302;18.996;2022-08-19T17:27:33;13.07;;;5.57;;
39356;SDS011;25077;50.302;18.996;2022-08-19T17:30:36;14.52;;;5.68;;
39356;SDS011;25077;50.302;18.996;2022-08-19T17:33:38;18.00;;;6.50;;
39356;SDS011;25077;50.302;18.996;2022-08-19T17:36:40;21.60;;;6.97;;
39356;SDS011;25077;50.302;18.996;2022-08-19T17:39:42;17.23;;;6.55;;
39356;SDS011;25077;50.302;18.996;2022-08-19T17:42:44;23.60;;;6.05;;
39356;SDS011;25077;50.302;18.996;2022-08-19T17:45:47;13.43;;;4.70;;
39356;SDS011;25077;50.302;18.996;2022-08-19T17:48:50;22.08;;;6.00;;
39356;SDS011;25077;50.302;18.996;2022-08-19T17:51:54;20.17;;;5.63;;
39356;SDS011;25077;50.302;18.996;2022-08-19T17:54:58;15.27;;;5.75;;
39356;SDS011;25077;50.302;18.996;2022-08-19T17:58:00;20.17;;;5.73;;